sensor_id;sensor_type;location;lat;lon;timestamp;P1;durP1;ratioP1;P2;durP2;ratioP2
2658;SDS011;1339;53.304;10.406;2022-09-09T00:02:16;22.47;;;17.80;;
2658;SDS011;1339;53.304;10.406;2022-09-09T00:04:45;18.53;;;16.50;;
2658;SDS011;1339;53.304;10.406;2022-09-09T00:07:18;22.17;;;17.33;;
2658;SDS011;1339;53.304;10.406;2022-09-09T00:09:48;23.50;;;18.17;;
2658;SDS011;1339;53.304;10.406;2022-09-09T00:12:18;18.90;;;16.33;;
2658;SDS011;1339;53.304;10.406;2022-09-09T00:14:50;20.03;;;17.77;;
2658;SDS011;1339;53.304;10.406;2022-09-09T00:17:21;21.60;;;17.53;;
2658;SDS011;1339;53.304;10.406;2022-09-09T00:19:53;18.90;;;15.40;;
2658;SDS011;1339;53.304;10.406;2022-09-09T00:22:23;20.27;;;17.20;;
2658;SDS011;1339;53.304;10.406;2022-09-09T00:24:53;18.63;;;16.67;;
2658;SDS011;1339;53.304;10.406;2022-09-09T00:27:23;18.87;;;16.90;;
2658;SDS011;1339;53.304;10.406;2022-09-09T00:29:54;17.13;;;15.30;;
2658;SDS011;1339;53.304;10.406;2022-09-09T00:32:23;18.93;;;16.93;;
2658;SDS011;1339;53.304;10.406;2022-09-09T00:34:54;18.53;;;14.90;;
2658;SDS011;1339;53.304;10.406;2022-09-09T00:37:22;16.50;;;14.13;;
2658;SDS011;1339;53.304;10.406;2022-09-09T00:39:54;15.67;;;13.30;;
2658;SDS011;1339;53.304;10.406;2022-09-09T00:42:25;18.30;;;16.17;;
2658;SDS011;1339;53.304;10.406;2022-09-09T00:44:55;16.27;;;14.50;;
2658;SDS011;1339;53.304;10.406;2022-09-09T00:47:30;17.70;;;15.90;;
2658;SDS011;1339;53.304;10.406;2022-09-09T00:50:03;15.50;;;13.37;;
2658;SDS011;1339;53.304;10.406;2022-09-09T00:52:32;16.27;;;14.47;;
2658;SDS011;1339;53.304;10.406;2022-09-09T00:55:05;16.60;;;14.90;;
2658;SDS011;1339;53.304;10.406;2022-09-09T00:57:35;16.93;;;14.97;;
2658;SDS011;1339;53.304;10.406;2022-09-09T01:00:19;17.67;;;14.80;;
2658;SDS011;1339;53.304;10.406;2022-09-09T01:02:59;17.97;;;15.10;;
2658;SDS011;1339;53.304;10.406;2022-09-09T01:05:32;16.77;;;14.87;;
2658;SDS011;1339;53.304;10.406;2022-09-09T01:08:00;15.03;;;13.40;;
2658;SDS011;1339;53.304;10.406;2022-09-09T01:10:30;17.83;;;14.77;;
2658;SDS011;1339;53.304;10.406;2022-09-09T01:13:04;18.83;;;16.83;;
2658;SDS011;1339;53.304;10.406;2022-09-09T01:15:36;17.67;;;15.60;;
2658;SDS011;1339;53.304;10.406;2022-09-09T01:18:05;15.50;;;13.03;;
2658;SDS011;1339;53.304;10.406;2022-09-09T01:20:37;16.53;;;13.13;;
2658;SDS011;1339;53.304;10.406;2022-09-09T01:26:08;14.67;;;12.73;;
2658;SDS011;1339;53.304;10.406;2022-09-09T01:28:36;17.70;;;14.73;;
2658;SDS011;1339;53.304;10.406;2022-09-09T01:31:04;18.50;;;15.27;;
2658;SDS011;1339;53.304;10.406;2022-09-09T01:33:33;16.97;;;15.20;;
2658;SDS011;1339;53.304;10.406;2022-09-09T01:36:01;18.10;;;14.93;;
2658;SDS011;1339;53.304;10.406;2022-09-09T01:38:30;15.67;;;14.00;;
2658;SDS011;1339;53.304;10.406;2022-09-09T01:40:58;18.87;;;15.10;;
2658;SDS011;1339;53.304;10.406;2022-09-09T01:43:27;20.90;;;17.13;;
2658;SDS011;1339;53.304;10.406;2022-09-09T01:45:55;17.37;;;14.33;;
2658;SDS011;1339;53.304;10.406;2022-09-09T01:48:23;17.03;;;14.50;;
2658;SDS011;1339;53.304;10.406;2022-09-09T01:50:51;17.13;;;14.10;;
2658;SDS011;1339;53.304;10.406;2022-09-09T01:53:19;17.33;;;14.40;;
2658;SDS011;1339;53.304;10.406;2022-09-09T01:55:48;18.60;;;14.97;;
2658;SDS011;1339;53.304;10.406;2022-09-09T01:58:22;19.50;;;15.40;;
2658;SDS011;1339;53.304;10.406;2022-09-09T02:00:54;19.67;;;16.67;;
2658;SDS011;1339;53.304;10.406;2022-09-09T02:03:23;21.83;;;16.23;;
2658;SDS011;1339;53.304;10.406;2022-09-09T02:05:53;20.60;;;16.77;;
2658;SDS011;1339;53.304;10.406;2022-09-09T02:08:24;18.20;;;16.00;;
2658;SDS011;1339;53.304;10.406;2022-09-09T02:10:54;18.90;;;15.87;;
2658;SDS011;1339;53.304;10.406;2022-09-09T02:13:22;21.50;;;16.43;;
2658;SDS011;1339;53.304;10.406;2022-09-09T02:15:52;18.00;;;16.10;;
2658;SDS011;1339;53.304;10.406;2022-09-09T02:18:21;17.50;;;14.03;;
2658;SDS011;1339;53.304;10.406;2022-09-09T02:20:51;19.17;;;15.00;;
2658;SDS011;1339;53.304;10.406;2022-09-09T02:23:19;15.50;;;13.37;;
2658;SDS011;1339;53.304;10.406;2022-09-09T02:25:46;20.47;;;15.83;;
2658;SDS011;1339;53.304;10.406;2022-09-09T02:28:16;17.73;;;13.97;;
2658;SDS011;1339;53.304;10.406;2022-09-09T02:30:46;17.63;;;15.43;;
2658;SDS011;1339;53.304;10.406;2022-09-09T02:33:19;17.20;;;14.53;;
2658;SDS011;1339;53.304;10.406;2022-09-09T02:35:47;15.17;;;13.07;;
2658;SDS011;1339;53.304;10.406;2022-09-09T02:38:14;17.43;;;12.83;;
2658;SDS011;1339;53.304;10.406;2022-09-09T02:40:43;15.83;;;13.70;;
2658;SDS011;1339;53.304;10.406;2022-09-09T02:43:10;15.90;;;14.07;;
2658;SDS011;1339;53.304;10.406;2022-09-09T02:45:39;14.90;;;13.30;;
2658;SDS011;1339;53.304;10.406;2022-09-09T02:48:10;15.73;;;13.80;;
2658;SDS011;1339;53.304;10.406;2022-09-09T02:50:40;14.17;;;12.67;;
2658;SDS011;1339;53.304;10.406;2022-09-09T02:53:10;15.43;;;12.80;;
2658;SDS011;1339;53.304;10.406;2022-09-09T02:55:41;15.43;;;13.63;;
2658;SDS011;1339;53.304;10.406;2022-09-09T02:58:12;13.50;;;12.20;;
2658;SDS011;1339;53.304;10.406;2022-09-09T03:00:42;14.70;;;13.00;;
2658;SDS011;1339;53.304;10.406;2022-09-09T03:03:10;14.47;;;13.17;;
2658;SDS011;1339;53.304;10.406;2022-09-09T03:05:37;15.07;;;12.90;;
2658;SDS011;1339;53.304;10.406;2022-09-09T03:08:07;14.17;;;12.67;;
2658;SDS011;1339;53.304;10.406;2022-09-09T03:10:34;14.97;;;13.37;;
2658;SDS011;1339;53.304;10.406;2022-09-09T03:13:02;13.13;;;11.73;;
2658;SDS011;1339;53.304;10.406;2022-09-09T03:15:30;15.07;;;13.47;;
2658;SDS011;1339;53.304;10.406;2022-09-09T03:17:57;15.57;;;14.00;;
2658;SDS011;1339;53.304;10.406;2022-09-09T03:20:25;13.80;;;12.40;;
2658;SDS011;1339;53.304;10.406;2022-09-09T03:22:52;12.90;;;11.60;;
2658;SDS011;1339;53.304;10.406;2022-09-09T03:25:21;14.33;;;12.47;;
2658;SDS011;1339;53.304;10.406;2022-09-09T03:27:49;13.60;;;11.50;;
2658;SDS011;1339;53.304;10.406;2022-09-09T03:30:19;13.47;;;12.10;;
2658;SDS011;1339;53.304;10.406;2022-09-09T03:32:46;12.03;;;10.83;;
2658;SDS011;1339;53.304;10.406;2022-09-09T03:35:13;12.13;;;11.03;;
2658;SDS011;1339;53.304;10.406;2022-09-09T03:37:41;13.40;;;11.90;;
2658;SDS011;1339;53.304;10.406;2022-09-09T03:40:08;13.40;;;11.83;;
2658;SDS011;1339;53.304;10.406;2022-09-09T03:42:37;13.40;;;12.10;;
2658;SDS011;1339;53.304;10.406;2022-09-09T03:45:05;13.30;;;12.00;;
2658;SDS011;1339;53.304;10.406;2022-09-09T03:47:32;14.23;;;12.40;;
2658;SDS011;1339;53.304;10.406;2022-09-09T03:49:59;13.93;;;12.43;;
2658;SDS011;1339;53.304;10.406;2022-09-09T03:52:27;13.43;;;12.03;;
2658;SDS011;1339;53.304;10.406;2022-09-09T03:54:54;13.50;;;11.80;;
2658;SDS011;1339;53.304;10.406;2022-09-09T03:57:21;13.50;;;12.17;;
2658;SDS011;1339;53.304;10.406;2022-09-09T03:59:50;12.53;;;11.40;;
2658;SDS011;1339;53.304;10.406;2022-09-09T04:02:17;14.60;;;11.00;;
2658;SDS011;1339;53.304;10.406;2022-09-09T04:04:44;12.67;;;11.47;;
2658;SDS011;1339;53.304;10.406;2022-09-09T04:07:11;12.50;;;11.20;;
2658;SDS011;1339;53.304;10.406;2022-09-09T04:09:39;12.50;;;11.40;;
2658;SDS011;1339;53.304;10.406;2022-09-09T04:12:06;13.47;;;12.13;;
2658;SDS011;1339;53.304;10.406;2022-09-09T04:14:33;13.33;;;11.93;;
2658;SDS011;1339;53.304;10.406;2022-09-09T04:17:02;10.90;;;9.80;;
2658;SDS011;1339;53.304;10.406;2022-09-09T04:19:31;11.87;;;10.77;;
2658;SDS011;1339;53.304;10.406;2022-09-09T04:21:58;12.10;;;10.80;;
2658;SDS011;1339;53.304;10.406;2022-09-09T04:24:25;12.77;;;11.23;;
2658;SDS011;1339;53.304;10.406;2022-09-09T04:26:54;11.67;;;10.47;;
2658;SDS011;1339;53.304;10.406;2022-09-09T04:29:21;12.00;;;10.00;;
2658;SDS011;1339;53.304;10.406;2022-09-09T04:31:48;10.93;;;9.83;;
2658;SDS011;1339;53.304;10.406;2022-09-09T04:34:17;11.67;;;10.47;;
2658;SDS011;1339;53.304;10.406;2022-09-09T04:36:44;11.50;;;10.30;;
2658;SDS011;1339;53.304;10.406;2022-09-09T04:39:11;10.70;;;9.60;;
2658;SDS011;1339;53.304;10.406;2022-09-09T04:41:38;13.67;;;10.13;;
2658;SDS011;1339;53.304;10.406;2022-09-09T04:44:05;10.17;;;8.97;;
2658;SDS011;1339;53.304;10.406;2022-09-09T04:46:32;11.43;;;9.30;;
2658;SDS011;1339;53.304;10.406;2022-09-09T04:49:00;11.83;;;9.00;;
2658;SDS011;1339;53.304;10.406;2022-09-09T04:51:28;10.30;;;8.90;;
2658;SDS011;1339;53.304;10.406;2022-09-09T04:53:56;12.90;;;9.13;;
2658;SDS011;1339;53.304;10.406;2022-09-09T04:56:24;10.13;;;8.60;;
2658;SDS011;1339;53.304;10.406;2022-09-09T04:58:53;9.50;;;8.60;;
2658;SDS011;1339;53.304;10.406;2022-09-09T05:01:20;9.63;;;8.70;;
2658;SDS011;1339;53.304;10.406;2022-09-09T05:03:48;9.20;;;8.17;;
2658;SDS011;1339;53.304;10.406;2022-09-09T05:06:17;9.67;;;8.57;;
2658;SDS011;1339;53.304;10.406;2022-09-09T05:08:46;9.97;;;8.97;;
2658;SDS011;1339;53.304;10.406;2022-09-09T05:11:17;10.43;;;9.33;;
2658;SDS011;1339;53.304;10.406;2022-09-09T05:13:45;10.73;;;8.63;;
2658;SDS011;1339;53.304;10.406;2022-09-09T05:16:12;10.43;;;8.57;;
2658;SDS011;1339;53.304;10.406;2022-09-09T05:18:40;10.17;;;9.20;;
2658;SDS011;1339;53.304;10.406;2022-09-09T05:21:08;10.00;;;8.60;;
2658;SDS011;1339;53.304;10.406;2022-09-09T05:23:35;9.13;;;8.23;;
2658;SDS011;1339;53.304;10.406;2022-09-09T05:26:04;9.20;;;8.30;;
2658;SDS011;1339;53.304;10.406;2022-09-09T05:28:33;9.30;;;8.40;;
2658;SDS011;1339;53.304;10.406;2022-09-09T05:31:01;8.27;;;7.50;;
2658;SDS011;1339;53.304;10.406;2022-09-09T05:33:30;8.40;;;7.60;;
2658;SDS011;1339;53.304;10.406;2022-09-09T05:35:58;9.23;;;8.33;;
2658;SDS011;1339;53.304;10.406;2022-09-09T05:38:26;11.37;;;8.20;;
2658;SDS011;1339;53.304;10.406;2022-09-09T05:40:54;8.27;;;7.47;;
2658;SDS011;1339;53.304;10.406;2022-09-09T05:43:23;12.27;;;7.50;;
2658;SDS011;1339;53.304;10.406;2022-09-09T05:45:58;8.10;;;7.37;;
2658;SDS011;1339;53.304;10.406;2022-09-09T05:48:27;8.57;;;7.67;;
2658;SDS011;1339;53.304;10.406;2022-09-09T05:50:55;7.67;;;7.07;;
2658;SDS011;1339;53.304;10.406;2022-09-09T05:53:22;7.27;;;6.63;;
2658;SDS011;1339;53.304;10.406;2022-09-09T05:55:49;8.90;;;6.90;;
2658;SDS011;1339;53.304;10.406;2022-09-09T05:58:16;6.40;;;5.80;;
2658;SDS011;1339;53.304;10.406;2022-09-09T06:00:45;9.33;;;6.93;;
2658;SDS011;1339;53.304;10.406;2022-09-09T06:03:12;7.30;;;6.50;;
2658;SDS011;1339;53.304;10.406;2022-09-09T06:05:39;9.20;;;7.20;;
2658;SDS011;1339;53.304;10.406;2022-09-09T06:08:06;6.70;;;6.10;;
2658;SDS011;1339;53.304;10.406;2022-09-09T06:10:33;6.87;;;6.17;;
2658;SDS011;1339;53.304;10.406;2022-09-09T06:13:01;6.53;;;5.93;;
2658;SDS011;1339;53.304;10.406;2022-09-09T06:15:28;8.70;;;6.20;;
2658;SDS011;1339;53.304;10.406;2022-09-09T06:17:58;7.37;;;6.40;;
2658;SDS011;1339;53.304;10.406;2022-09-09T06:20:25;6.60;;;5.97;;
2658;SDS011;1339;53.304;10.406;2022-09-09T06:22:55;7.13;;;6.07;;
2658;SDS011;1339;53.304;10.406;2022-09-09T06:25:22;8.80;;;6.27;;
2658;SDS011;1339;53.304;10.406;2022-09-09T06:27:50;6.50;;;6.00;;
2658;SDS011;1339;53.304;10.406;2022-09-09T06:30:17;7.57;;;5.77;;
2658;SDS011;1339;53.304;10.406;2022-09-09T06:32:44;9.93;;;5.27;;
2658;SDS011;1339;53.304;10.406;2022-09-09T06:35:13;5.30;;;4.90;;
2658;SDS011;1339;53.304;10.406;2022-09-09T06:37:40;5.37;;;4.93;;
2658;SDS011;1339;53.304;10.406;2022-09-09T06:40:13;4.97;;;4.30;;
2658;SDS011;1339;53.304;10.406;2022-09-09T06:42:41;4.40;;;4.10;;
2658;SDS011;1339;53.304;10.406;2022-09-09T06:45:08;4.93;;;4.43;;
2658;SDS011;1339;53.304;10.406;2022-09-09T06:47:36;6.70;;;4.50;;
2658;SDS011;1339;53.304;10.406;2022-09-09T06:50:03;4.97;;;4.57;;
2658;SDS011;1339;53.304;10.406;2022-09-09T06:52:31;6.67;;;6.07;;
2658;SDS011;1339;53.304;10.406;2022-09-09T06:54:58;6.17;;;5.70;;
2658;SDS011;1339;53.304;10.406;2022-09-09T06:57:26;6.87;;;4.60;;
2658;SDS011;1339;53.304;10.406;2022-09-09T06:59:53;4.80;;;4.40;;
2658;SDS011;1339;53.304;10.406;2022-09-09T07:02:20;4.80;;;4.40;;
2658;SDS011;1339;53.304;10.406;2022-09-09T07:04:47;5.20;;;4.70;;
2658;SDS011;1339;53.304;10.406;2022-09-09T07:07:16;4.87;;;4.57;;
2658;SDS011;1339;53.304;10.406;2022-09-09T07:09:44;5.60;;;4.77;;
2658;SDS011;1339;53.304;10.406;2022-09-09T07:12:11;6.00;;;5.50;;
2658;SDS011;1339;53.304;10.406;2022-09-09T07:14:39;9.00;;;5.17;;
2658;SDS011;1339;53.304;10.406;2022-09-09T07:17:06;5.37;;;4.87;;
2658;SDS011;1339;53.304;10.406;2022-09-09T07:19:33;5.57;;;5.07;;
2658;SDS011;1339;53.304;10.406;2022-09-09T07:22:01;5.30;;;4.47;;
2658;SDS011;1339;53.304;10.406;2022-09-09T07:24:28;5.10;;;4.60;;
2658;SDS011;1339;53.304;10.406;2022-09-09T07:26:57;7.60;;;3.97;;
2658;SDS011;1339;53.304;10.406;2022-09-09T07:29:24;4.47;;;4.07;;
2658;SDS011;1339;53.304;10.406;2022-09-09T07:31:51;4.60;;;4.20;;
2658;SDS011;1339;53.304;10.406;2022-09-09T07:34:18;6.37;;;4.77;;
2658;SDS011;1339;53.304;10.406;2022-09-09T07:36:46;4.83;;;4.43;;
2658;SDS011;1339;53.304;10.406;2022-09-09T07:39:14;8.43;;;5.73;;
2658;SDS011;1339;53.304;10.406;2022-09-09T07:41:43;6.40;;;3.97;;
2658;SDS011;1339;53.304;10.406;2022-09-09T07:44:12;8.90;;;5.00;;
2658;SDS011;1339;53.304;10.406;2022-09-09T07:46:40;4.70;;;4.30;;
2658;SDS011;1339;53.304;10.406;2022-09-09T07:49:08;6.43;;;4.67;;
2658;SDS011;1339;53.304;10.406;2022-09-09T07:51:36;4.57;;;4.17;;
2658;SDS011;1339;53.304;10.406;2022-09-09T07:54:04;6.00;;;4.93;;
2658;SDS011;1339;53.304;10.406;2022-09-09T07:56:31;5.37;;;4.87;;
2658;SDS011;1339;53.304;10.406;2022-09-09T07:58:59;5.17;;;4.60;;
2658;SDS011;1339;53.304;10.406;2022-09-09T08:01:28;5.07;;;4.63;;
2658;SDS011;1339;53.304;10.406;2022-09-09T08:03:57;5.13;;;4.67;;
2658;SDS011;1339;53.304;10.406;2022-09-09T08:06:26;4.70;;;4.10;;
2658;SDS011;1339;53.304;10.406;2022-09-09T08:08:54;4.03;;;3.67;;
2658;SDS011;1339;53.304;10.406;2022-09-09T08:11:22;4.00;;;3.70;;
2658;SDS011;1339;53.304;10.406;2022-09-09T08:13:49;3.87;;;3.57;;
2658;SDS011;1339;53.304;10.406;2022-09-09T08:16:18;4.00;;;3.70;;
2658;SDS011;1339;53.304;10.406;2022-09-09T08:18:47;4.30;;;4.00;;
2658;SDS011;1339;53.304;10.406;2022-09-09T08:21:17;8.37;;;3.30;;
2658;SDS011;1339;53.304;10.406;2022-09-09T08:23:45;3.30;;;2.60;;
2658;SDS011;1339;53.304;10.406;2022-09-09T08:26:13;3.70;;;3.40;;
2658;SDS011;1339;53.304;10.406;2022-09-09T08:28:41;4.13;;;3.73;;
2658;SDS011;1339;53.304;10.406;2022-09-09T08:31:09;4.43;;;3.50;;
2658;SDS011;1339;53.304;10.406;2022-09-09T08:33:37;6.43;;;3.50;;
2658;SDS011;1339;53.304;10.406;2022-09-09T08:36:06;4.90;;;3.90;;
2658;SDS011;1339;53.304;10.406;2022-09-09T08:38:34;3.60;;;3.40;;
2658;SDS011;1339;53.304;10.406;2022-09-09T08:41:05;3.63;;;3.27;;
2658;SDS011;1339;53.304;10.406;2022-09-09T08:43:35;4.10;;;3.67;;
2658;SDS011;1339;53.304;10.406;2022-09-09T08:46:03;4.00;;;3.60;;
2658;SDS011;1339;53.304;10.406;2022-09-09T08:48:40;3.60;;;3.13;;
2658;SDS011;1339;53.304;10.406;2022-09-09T08:51:11;7.53;;;4.17;;
2658;SDS011;1339;53.304;10.406;2022-09-09T08:53:40;4.33;;;3.90;;
2658;SDS011;1339;53.304;10.406;2022-09-09T08:56:09;5.67;;;3.97;;
2658;SDS011;1339;53.304;10.406;2022-09-09T08:58:41;4.30;;;4.00;;
2658;SDS011;1339;53.304;10.406;2022-09-09T09:01:22;4.60;;;4.27;;
2658;SDS011;1339;53.304;10.406;2022-09-09T09:03:56;4.40;;;4.07;;
2658;SDS011;1339;53.304;10.406;2022-09-09T09:06:31;4.77;;;4.20;;
2658;SDS011;1339;53.304;10.406;2022-09-09T09:09:04;4.50;;;4.20;;
2658;SDS011;1339;53.304;10.406;2022-09-09T09:11:36;6.23;;;4.87;;
2658;SDS011;1339;53.304;10.406;2022-09-09T09:14:07;5.83;;;3.93;;
2658;SDS011;1339;53.304;10.406;2022-09-09T09:16:41;5.13;;;4.03;;
2658;SDS011;1339;53.304;10.406;2022-09-09T09:19:13;4.27;;;3.87;;
2658;SDS011;1339;53.304;10.406;2022-09-09T09:21:43;5.90;;;3.63;;
2658;SDS011;1339;53.304;10.406;2022-09-09T09:24:13;4.40;;;3.73;;
2658;SDS011;1339;53.304;10.406;2022-09-09T09:26:43;9.70;;;6.70;;
2658;SDS011;1339;53.304;10.406;2022-09-09T09:29:11;5.17;;;4.47;;
2658;SDS011;1339;53.304;10.406;2022-09-09T09:31:41;4.10;;;3.80;;
2658;SDS011;1339;53.304;10.406;2022-09-09T09:34:08;5.17;;;3.83;;
2658;SDS011;1339;53.304;10.406;2022-09-09T09:36:39;5.50;;;3.03;;
2658;SDS011;1339;53.304;10.406;2022-09-09T09:39:08;5.47;;;5.07;;
2658;SDS011;1339;53.304;10.406;2022-09-09T09:41:36;4.93;;;3.10;;
2658;SDS011;1339;53.304;10.406;2022-09-09T09:44:05;4.80;;;4.30;;
2658;SDS011;1339;53.304;10.406;2022-09-09T09:46:32;6.20;;;3.53;;
2658;SDS011;1339;53.304;10.406;2022-09-09T09:49:00;4.60;;;2.83;;
2658;SDS011;1339;53.304;10.406;2022-09-09T09:51:27;5.27;;;3.07;;
2658;SDS011;1339;53.304;10.406;2022-09-09T09:54:02;4.03;;;3.10;;
2658;SDS011;1339;53.304;10.406;2022-09-09T09:56:32;5.00;;;3.70;;
2658;SDS011;1339;53.304;10.406;2022-09-09T09:58:59;3.03;;;2.83;;
2658;SDS011;1339;53.304;10.406;2022-09-09T10:01:27;3.30;;;3.00;;
2658;SDS011;1339;53.304;10.406;2022-09-09T10:03:57;4.07;;;2.97;;
2658;SDS011;1339;53.304;10.406;2022-09-09T10:06:31;4.90;;;3.10;;
2658;SDS011;1339;53.304;10.406;2022-09-09T10:08:58;3.17;;;2.97;;
2658;SDS011;1339;53.304;10.406;2022-09-09T10:11:29;3.10;;;2.80;;
2658;SDS011;1339;53.304;10.406;2022-09-09T10:14:00;5.43;;;4.47;;
2658;SDS011;1339;53.304;10.406;2022-09-09T10:16:35;5.87;;;3.60;;
2658;SDS011;1339;53.304;10.406;2022-09-09T10:19:06;3.40;;;3.10;;
2658;SDS011;1339;53.304;10.406;2022-09-09T10:24:36;4.23;;;3.97;;
2658;SDS011;1339;53.304;10.406;2022-09-09T10:27:10;4.07;;;3.77;;
2658;SDS011;1339;53.304;10.406;2022-09-09T10:29:47;5.40;;;3.87;;
2658;SDS011;1339;53.304;10.406;2022-09-09T10:32:26;4.40;;;3.27;;
2658;SDS011;1339;53.304;10.406;2022-09-09T10:34:58;4.43;;;3.20;;
2658;SDS011;1339;53.304;10.406;2022-09-09T10:37:32;5.00;;;2.97;;
2658;SDS011;1339;53.304;10.406;2022-09-09T10:40:05;3.30;;;2.80;;
2658;SDS011;1339;53.304;10.406;2022-09-09T10:42:38;5.03;;;3.03;;
2658;SDS011;1339;53.304;10.406;2022-09-09T10:45:10;4.73;;;2.80;;
2658;SDS011;1339;53.304;10.406;2022-09-09T10:47:46;2.20;;;2.00;;
2658;SDS011;1339;53.304;10.406;2022-09-09T10:50:29;4.40;;;2.63;;
2658;SDS011;1339;53.304;10.406;2022-09-09T10:53:00;3.67;;;2.40;;
2658;SDS011;1339;53.304;10.406;2022-09-09T10:55:32;2.03;;;1.90;;
2658;SDS011;1339;53.304;10.406;2022-09-09T10:58:02;3.90;;;2.60;;
2658;SDS011;1339;53.304;10.406;2022-09-09T11:00:36;2.43;;;2.17;;
2658;SDS011;1339;53.304;10.406;2022-09-09T11:03:05;2.70;;;2.50;;
2658;SDS011;1339;53.304;10.406;2022-09-09T11:05:35;2.63;;;2.30;;
2658;SDS011;1339;53.304;10.406;2022-09-09T11:08:05;2.07;;;1.97;;
2658;SDS011;1339;53.304;10.406;2022-09-09T11:10:34;2.17;;;1.97;;
2658;SDS011;1339;53.304;10.406;2022-09-09T11:13:05;2.90;;;2.17;;
2658;SDS011;1339;53.304;10.406;2022-09-09T11:15:38;2.20;;;2.00;;
2658;SDS011;1339;53.304;10.406;2022-09-09T11:18:07;2.20;;;1.93;;
2658;SDS011;1339;53.304;10.406;2022-09-09T11:20:38;1.60;;;1.50;;
2658;SDS011;1339;53.304;10.406;2022-09-09T11:23:08;1.83;;;1.73;;
2658;SDS011;1339;53.304;10.406;2022-09-09T11:25:36;1.60;;;1.50;;
2658;SDS011;1339;53.304;10.406;2022-09-09T11:28:08;4.40;;;1.63;;
2658;SDS011;1339;53.304;10.406;2022-09-09T11:30:45;3.87;;;1.50;;
2658;SDS011;1339;53.304;10.406;2022-09-09T11:36:10;2.10;;;1.90;;
2658;SDS011;1339;53.304;10.406;2022-09-09T11:38:41;3.23;;;1.77;;
2658;SDS011;1339;53.304;10.406;2022-09-09T11:41:11;3.43;;;1.53;;
2658;SDS011;1339;53.304;10.406;2022-09-09T11:43:39;2.17;;;2.07;;
2658;SDS011;1339;53.304;10.406;2022-09-09T11:46:08;1.90;;;1.70;;
2658;SDS011;1339;53.304;10.406;2022-09-09T11:48:37;5.47;;;1.93;;
2658;SDS011;1339;53.304;10.406;2022-09-09T11:51:08;3.50;;;2.00;;
2658;SDS011;1339;53.304;10.406;2022-09-09T11:53:47;3.60;;;2.27;;
2658;SDS011;1339;53.304;10.406;2022-09-09T11:56:22;3.63;;;2.40;;
2658;SDS011;1339;53.304;10.406;2022-09-09T11:58:53;5.10;;;3.17;;
2658;SDS011;1339;53.304;10.406;2022-09-09T12:01:35;8.50;;;4.03;;
2658;SDS011;1339;53.304;10.406;2022-09-09T12:04:13;7.17;;;3.67;;
2658;SDS011;1339;53.304;10.406;2022-09-09T12:06:42;5.70;;;3.47;;
2658;SDS011;1339;53.304;10.406;2022-09-09T12:09:15;4.30;;;3.60;;
2658;SDS011;1339;53.304;10.406;2022-09-09T12:11:44;4.80;;;3.13;;
2658;SDS011;1339;53.304;10.406;2022-09-09T12:14:19;8.13;;;3.13;;
2658;SDS011;1339;53.304;10.406;2022-09-09T12:16:47;5.43;;;2.60;;
2658;SDS011;1339;53.304;10.406;2022-09-09T12:19:15;3.63;;;1.90;;
2658;SDS011;1339;53.304;10.406;2022-09-09T12:21:45;5.67;;;3.23;;
2658;SDS011;1339;53.304;10.406;2022-09-09T12:24:14;5.30;;;2.27;;
2658;SDS011;1339;53.304;10.406;2022-09-09T12:26:46;2.57;;;2.00;;
2658;SDS011;1339;53.304;10.406;2022-09-09T12:29:18;5.30;;;2.73;;
2658;SDS011;1339;53.304;10.406;2022-09-09T12:31:51;4.63;;;2.70;;
2658;SDS011;1339;53.304;10.406;2022-09-09T12:34:24;2.70;;;2.00;;
2658;SDS011;1339;53.304;10.406;2022-09-09T12:36:55;2.60;;;2.40;;
2658;SDS011;1339;53.304;10.406;2022-09-09T12:39:27;2.20;;;2.00;;
2658;SDS011;1339;53.304;10.406;2022-09-09T12:41:56;3.17;;;2.23;;
2658;SDS011;1339;53.304;10.406;2022-09-09T12:44:23;2.50;;;2.30;;
2658;SDS011;1339;53.304;10.406;2022-09-09T12:46:54;2.40;;;1.60;;
2658;SDS011;1339;53.304;10.406;2022-09-09T12:49:32;3.57;;;2.10;;
2658;SDS011;1339;53.304;10.406;2022-09-09T12:52:02;2.00;;;1.80;;
2658;SDS011;1339;53.304;10.406;2022-09-09T12:54:30;2.20;;;2.00;;
2658;SDS011;1339;53.304;10.406;2022-09-09T12:56:57;2.70;;;2.40;;
2658;SDS011;1339;53.304;10.406;2022-09-09T12:59:25;4.73;;;2.73;;
2658;SDS011;1339;53.304;10.406;2022-09-09T13:01:58;2.37;;;2.27;;
2658;SDS011;1339;53.304;10.406;2022-09-09T13:04:25;2.80;;;2.60;;
2658;SDS011;1339;53.304;10.406;2022-09-09T13:06:52;4.90;;;2.77;;
2658;SDS011;1339;53.304;10.406;2022-09-09T13:09:20;4.30;;;2.70;;
2658;SDS011;1339;53.304;10.406;2022-09-09T13:11:48;2.87;;;2.67;;
2658;SDS011;1339;53.304;10.406;2022-09-09T13:14:17;2.70;;;2.50;;
2658;SDS011;1339;53.304;10.406;2022-09-09T13:16:54;4.60;;;3.00;;
2658;SDS011;1339;53.304;10.406;2022-09-09T13:19:23;3.70;;;3.40;;
2658;SDS011;1339;53.304;10.406;2022-09-09T13:21:52;3.73;;;3.47;;
2658;SDS011;1339;53.304;10.406;2022-09-09T13:24:27;3.83;;;2.83;;
2658;SDS011;1339;53.304;10.406;2022-09-09T13:26:55;5.20;;;3.10;;
2658;SDS011;1339;53.304;10.406;2022-09-09T13:29:22;2.70;;;2.50;;
2658;SDS011;1339;53.304;10.406;2022-09-09T13:31:50;2.97;;;2.43;;
2658;SDS011;1339;53.304;10.406;2022-09-09T13:34:28;5.30;;;2.80;;
2658;SDS011;1339;53.304;10.406;2022-09-09T13:36:57;3.23;;;3.03;;
2658;SDS011;1339;53.304;10.406;2022-09-09T13:39:26;3.20;;;2.90;;
2658;SDS011;1339;53.304;10.406;2022-09-09T13:41:53;2.70;;;2.50;;
2658;SDS011;1339;53.304;10.406;2022-09-09T13:44:23;3.20;;;3.00;;
2658;SDS011;1339;53.304;10.406;2022-09-09T13:47:00;3.57;;;3.37;;
2658;SDS011;1339;53.304;10.406;2022-09-09T13:49:30;3.73;;;3.43;;
2658;SDS011;1339;53.304;10.406;2022-09-09T13:52:05;4.40;;;3.20;;
2658;SDS011;1339;53.304;10.406;2022-09-09T13:54:36;3.83;;;3.23;;
2658;SDS011;1339;53.304;10.406;2022-09-09T13:57:04;4.10;;;3.80;;
2658;SDS011;1339;53.304;10.406;2022-09-09T13:59:31;3.63;;;3.30;;
2658;SDS011;1339;53.304;10.406;2022-09-09T14:01:59;3.90;;;3.07;;
2658;SDS011;1339;53.304;10.406;2022-09-09T14:04:26;3.23;;;3.00;;
2658;SDS011;1339;53.304;10.406;2022-09-09T14:06:55;5.20;;;3.43;;
2658;SDS011;1339;53.304;10.406;2022-09-09T14:09:23;3.40;;;3.10;;
2658;SDS011;1339;53.304;10.406;2022-09-09T14:11:50;4.47;;;3.40;;
2658;SDS011;1339;53.304;10.406;2022-09-09T14:14:17;3.00;;;2.80;;
2658;SDS011;1339;53.304;10.406;2022-09-09T14:16:45;3.47;;;3.17;;
2658;SDS011;1339;53.304;10.406;2022-09-09T14:19:12;6.43;;;3.40;;
2658;SDS011;1339;53.304;10.406;2022-09-09T14:21:39;4.30;;;1.87;;
2658;SDS011;1339;53.304;10.406;2022-09-09T14:24:08;3.20;;;2.13;;
2658;SDS011;1339;53.304;10.406;2022-09-09T14:26:35;3.10;;;2.03;;
2658;SDS011;1339;53.304;10.406;2022-09-09T14:29:02;3.37;;;2.17;;
2658;SDS011;1339;53.304;10.406;2022-09-09T14:31:29;4.20;;;2.20;;
2658;SDS011;1339;53.304;10.406;2022-09-09T14:33:56;5.83;;;2.53;;
2658;SDS011;1339;53.304;10.406;2022-09-09T14:36:23;3.13;;;2.20;;
2658;SDS011;1339;53.304;10.406;2022-09-09T14:38:51;3.07;;;2.53;;
2658;SDS011;1339;53.304;10.406;2022-09-09T14:41:19;4.73;;;2.27;;
2658;SDS011;1339;53.304;10.406;2022-09-09T14:43:48;2.60;;;2.30;;
2658;SDS011;1339;53.304;10.406;2022-09-09T14:46:17;4.90;;;2.67;;
2658;SDS011;1339;53.304;10.406;2022-09-09T14:48:44;2.53;;;1.83;;
2658;SDS011;1339;53.304;10.406;2022-09-09T14:51:14;5.53;;;3.13;;
2658;SDS011;1339;53.304;10.406;2022-09-09T14:53:41;3.07;;;2.50;;
2658;SDS011;1339;53.304;10.406;2022-09-09T14:56:10;4.20;;;2.43;;
2658;SDS011;1339;53.304;10.406;2022-09-09T14:58:39;12.73;;;11.83;;
2658;SDS011;1339;53.304;10.406;2022-09-09T15:01:07;18.87;;;17.47;;
2658;SDS011;1339;53.304;10.406;2022-09-09T15:03:35;13.23;;;11.73;;
2658;SDS011;1339;53.304;10.406;2022-09-09T15:06:06;8.40;;;7.60;;
2658;SDS011;1339;53.304;10.406;2022-09-09T15:08:34;5.20;;;4.80;;
2658;SDS011;1339;53.304;10.406;2022-09-09T15:11:01;4.97;;;4.47;;
2658;SDS011;1339;53.304;10.406;2022-09-09T15:13:29;3.53;;;3.20;;
2658;SDS011;1339;53.304;10.406;2022-09-09T15:16:00;3.93;;;3.03;;